sensor_id;sensor_type;location;lat;lon;timestamp;P1;durP1;ratioP1;P2;durP2;ratioP2
27145;SDS011;17980;51.744;7.190;2023-05-20T00:01:37;1.90;;;0.90;;
27145;SDS011;17980;51.744;7.190;2023-05-20T00:04:13;1.13;;;0.80;;
27145;SDS011;17980;51.744;7.190;2023-05-20T00:06:41;2.20;;;0.90;;
27145;SDS011;17980;51.744;7.190;2023-05-20T00:09:08;1.93;;;0.90;;
27145;SDS011;17980;51.744;7.190;2023-05-20T00:11:36;1.30;;;0.70;;
27145;SDS011;17980;51.744;7.190;2023-05-20T00:14:13;1.40;;;0.90;;
27145;SDS011;17980;51.744;7.190;2023-05-20T00:16:40;4.50;;;0.80;;
27145;SDS011;17980;51.744;7.190;2023-05-20T00:19:08;5.60;;;1.10;;
27145;SDS011;17980;51.744;7.190;2023-05-20T00:21:35;2.03;;;0.73;;
27145;SDS011;17980;51.744;7.190;2023-05-20T00:24:12;1.97;;;0.80;;
27145;SDS011;17980;51.744;7.190;2023-05-20T00:26:39;3.03;;;1.07;;
27145;SDS011;17980;51.744;7.190;2023-05-20T00:29:07;2.23;;;0.90;;
27145;SDS011;17980;51.744;7.190;2023-05-20T00:31:34;6.43;;;1.20;;
27145;SDS011;17980;51.744;7.190;2023-05-20T00:34:11;2.87;;;1.20;;
27145;SDS011;17980;51.744;7.190;2023-05-20T00:36:38;3.43;;;1.47;;
27145;SDS011;17980;51.744;7.190;2023-05-20T00:39:06;4.53;;;1.50;;
27145;SDS011;17980;51.744;7.190;2023-05-20T00:41:33;3.93;;;1.00;;
27145;SDS011;17980;51.744;7.190;2023-05-20T00:44:00;4.30;;;1.30;;
27145;SDS011;17980;51.744;7.190;2023-05-20T00:46:28;1.87;;;0.80;;
27145;SDS011;17980;51.744;7.190;2023-05-20T00:48:55;1.70;;;0.87;;
27145;SDS011;17980;51.744;7.190;2023-05-20T00:51:38;2.17;;;1.00;;
27145;SDS011;17980;51.744;7.190;2023-05-20T00:54:06;1.30;;;0.70;;
27145;SDS011;17980;51.744;7.190;2023-05-20T00:56:33;5.00;;;1.20;;
27145;SDS011;17980;51.744;7.190;2023-05-20T00:59:00;3.70;;;1.17;;
27145;SDS011;17980;51.744;7.190;2023-05-20T01:01:40;2.60;;;0.90;;
27145;SDS011;17980;51.744;7.190;2023-05-20T01:04:08;3.07;;;1.10;;
27145;SDS011;17980;51.744;7.190;2023-05-20T01:06:35;2.33;;;1.00;;
27145;SDS011;17980;51.744;7.190;2023-05-20T01:09:04;3.23;;;1.07;;
27145;SDS011;17980;51.744;7.190;2023-05-20T01:11:42;2.90;;;0.90;;
27145;SDS011;17980;51.744;7.190;2023-05-20T01:14:12;1.50;;;1.00;;
27145;SDS011;17980;51.744;7.190;2023-05-20T01:16:43;5.00;;;1.03;;
27145;SDS011;17980;51.744;7.190;2023-05-20T01:19:17;2.60;;;0.90;;
27145;SDS011;17980;51.744;7.190;2023-05-20T01:21:53;2.03;;;1.00;;
27145;SDS011;17980;51.744;7.190;2023-05-20T01:24:22;2.53;;;0.97;;
27145;SDS011;17980;51.744;7.190;2023-05-20T01:26:59;3.53;;;1.20;;
27145;SDS011;17980;51.744;7.190;2023-05-20T01:29:26;1.20;;;0.80;;
27145;SDS011;17980;51.744;7.190;2023-05-20T01:32:04;2.00;;;1.00;;
27145;SDS011;17980;51.744;7.190;2023-05-20T01:34:35;4.60;;;1.00;;
27145;SDS011;17980;51.744;7.190;2023-05-20T01:37:13;5.07;;;1.27;;
27145;SDS011;17980;51.744;7.190;2023-05-20T01:39:43;1.67;;;1.00;;
27145;SDS011;17980;51.744;7.190;2023-05-20T01:42:12;2.60;;;0.97;;
27145;SDS011;17980;51.744;7.190;2023-05-20T01:44:40;3.83;;;1.37;;
27145;SDS011;17980;51.744;7.190;2023-05-20T01:47:17;4.70;;;1.00;;
27145;SDS011;17980;51.744;7.190;2023-05-20T01:49:45;3.23;;;0.90;;
27145;SDS011;17980;51.744;7.190;2023-05-20T01:52:14;3.00;;;1.13;;
27145;SDS011;17980;51.744;7.190;2023-05-20T01:54:41;3.33;;;1.17;;
27145;SDS011;17980;51.744;7.190;2023-05-20T01:57:18;2.67;;;1.10;;
27145;SDS011;17980;51.744;7.190;2023-05-20T01:59:46;1.80;;;1.10;;
27145;SDS011;17980;51.744;7.190;2023-05-20T02:02:13;3.00;;;1.10;;
27145;SDS011;17980;51.744;7.190;2023-05-20T02:04:42;4.67;;;1.20;;
27145;SDS011;17980;51.744;7.190;2023-05-20T02:07:19;3.53;;;0.90;;
27145;SDS011;17980;51.744;7.190;2023-05-20T02:09:46;2.80;;;1.30;;
27145;SDS011;17980;51.744;7.190;2023-05-20T02:12:13;3.70;;;0.87;;
27145;SDS011;17980;51.744;7.190;2023-05-20T02:14:50;2.13;;;1.27;;
27145;SDS011;17980;51.744;7.190;2023-05-20T02:17:18;5.73;;;1.47;;
27145;SDS011;17980;51.744;7.190;2023-05-20T02:19:55;4.50;;;1.47;;
27145;SDS011;17980;51.744;7.190;2023-05-20T02:22:23;5.23;;;1.33;;
27145;SDS011;17980;51.744;7.190;2023-05-20T02:24:50;2.77;;;1.10;;
27145;SDS011;17980;51.744;7.190;2023-05-20T02:27:27;3.90;;;1.20;;
27145;SDS011;17980;51.744;7.190;2023-05-20T02:29:54;1.47;;;0.90;;
27145;SDS011;17980;51.744;7.190;2023-05-20T02:32:22;3.70;;;1.00;;
27145;SDS011;17980;51.744;7.190;2023-05-20T02:34:59;5.07;;;1.47;;
27145;SDS011;17980;51.744;7.190;2023-05-20T02:37:26;3.27;;;1.30;;
27145;SDS011;17980;51.744;7.190;2023-05-20T02:40:04;2.10;;;1.03;;
27145;SDS011;17980;51.744;7.190;2023-05-20T02:42:34;2.07;;;1.00;;
27145;SDS011;17980;51.744;7.190;2023-05-20T02:45:01;2.00;;;1.20;;
27145;SDS011;17980;51.744;7.190;2023-05-20T02:47:29;1.73;;;1.00;;
27145;SDS011;17980;51.744;7.190;2023-05-20T02:49:56;4.00;;;1.07;;
27145;SDS011;17980;51.744;7.190;2023-05-20T02:52:23;3.07;;;1.10;;
27145;SDS011;17980;51.744;7.190;2023-05-20T02:54:51;2.77;;;1.20;;
27145;SDS011;17980;51.744;7.190;2023-05-20T02:57:28;2.10;;;1.17;;
27145;SDS011;17980;51.744;7.190;2023-05-20T02:59:55;2.73;;;1.00;;
27145;SDS011;17980;51.744;7.190;2023-05-20T03:02:32;2.33;;;1.00;;
27145;SDS011;17980;51.744;7.190;2023-05-20T03:04:59;3.80;;;1.17;;
27145;SDS011;17980;51.744;7.190;2023-05-20T03:07:29;1.37;;;1.27;;
27145;SDS011;17980;51.744;7.190;2023-05-20T03:10:07;2.40;;;1.43;;
27145;SDS011;17980;51.744;7.190;2023-05-20T03:12:35;4.20;;;1.57;;
27145;SDS011;17980;51.744;7.190;2023-05-20T03:15:03;3.20;;;1.00;;
27145;SDS011;17980;51.744;7.190;2023-05-20T03:17:31;2.33;;;1.20;;
27145;SDS011;17980;51.744;7.190;2023-05-20T03:20:09;7.63;;;1.20;;
27145;SDS011;17980;51.744;7.190;2023-05-20T03:22:38;4.97;;;1.10;;
27145;SDS011;17980;51.744;7.190;2023-05-20T03:25:17;3.77;;;1.20;;
27145;SDS011;17980;51.744;7.190;2023-05-20T03:27:44;1.87;;;1.20;;
27145;SDS011;17980;51.744;7.190;2023-05-20T03:30:21;4.20;;;1.70;;
27145;SDS011;17980;51.744;7.190;2023-05-20T03:32:49;5.00;;;1.30;;
27145;SDS011;17980;51.744;7.190;2023-05-20T03:35:25;3.90;;;1.30;;
27145;SDS011;17980;51.744;7.190;2023-05-20T03:37:53;4.70;;;1.30;;
27145;SDS011;17980;51.744;7.190;2023-05-20T03:40:21;1.90;;;1.20;;
27145;SDS011;17980;51.744;7.190;2023-05-20T03:42:48;6.23;;;1.40;;
27145;SDS011;17980;51.744;7.190;2023-05-20T03:45:18;2.67;;;1.03;;
27145;SDS011;17980;51.744;7.190;2023-05-20T03:47:45;3.17;;;1.30;;
27145;SDS011;17980;51.744;7.190;2023-05-20T03:50:22;3.73;;;1.30;;
27145;SDS011;17980;51.744;7.190;2023-05-20T03:52:49;3.43;;;1.10;;
27145;SDS011;17980;51.744;7.190;2023-05-20T03:55:16;1.77;;;1.20;;
27145;SDS011;17980;51.744;7.190;2023-05-20T03:57:45;5.33;;;1.37;;
27145;SDS011;17980;51.744;7.190;2023-05-20T04:00:22;3.30;;;1.57;;
27145;SDS011;17980;51.744;7.190;2023-05-20T04:02:49;3.43;;;1.20;;
27145;SDS011;17980;51.744;7.190;2023-05-20T04:05:16;3.47;;;1.70;;
27145;SDS011;17980;51.744;7.190;2023-05-20T04:07:44;4.20;;;1.87;;
27145;SDS011;17980;51.744;7.190;2023-05-20T04:10:21;2.10;;;1.17;;
27145;SDS011;17980;51.744;7.190;2023-05-20T04:12:48;2.37;;;1.40;;
27145;SDS011;17980;51.744;7.190;2023-05-20T04:15:25;4.00;;;1.47;;
27145;SDS011;17980;51.744;7.190;2023-05-20T04:17:54;4.47;;;1.50;;
27145;SDS011;17980;51.744;7.190;2023-05-20T04:20:31;4.67;;;1.20;;
27145;SDS011;17980;51.744;7.190;2023-05-20T04:22:59;2.00;;;1.30;;
27145;SDS011;17980;51.744;7.190;2023-05-20T04:28:02;2.27;;;1.10;;
27145;SDS011;17980;51.744;7.190;2023-05-20T04:30:29;1.63;;;1.20;;
27145;SDS011;17980;51.744;7.190;2023-05-20T04:33:06;3.00;;;1.20;;
27145;SDS011;17980;51.744;7.190;2023-05-20T04:35:33;4.63;;;1.37;;
27145;SDS011;17980;51.744;7.190;2023-05-20T04:38:02;3.80;;;1.30;;
27145;SDS011;17980;51.744;7.190;2023-05-20T04:40:39;1.53;;;1.20;;
27145;SDS011;17980;51.744;7.190;2023-05-20T04:43:06;4.57;;;1.43;;
27145;SDS011;17980;51.744;7.190;2023-05-20T04:45:34;6.77;;;1.47;;
27145;SDS011;17980;51.744;7.190;2023-05-20T04:48:10;1.57;;;1.27;;
27145;SDS011;17980;51.744;7.190;2023-05-20T04:50:39;5.03;;;1.30;;
27145;SDS011;17980;51.744;7.190;2023-05-20T04:53:16;3.13;;;1.57;;
27145;SDS011;17980;51.744;7.190;2023-05-20T04:55:44;2.37;;;1.20;;
27145;SDS011;17980;51.744;7.190;2023-05-20T04:58:12;4.73;;;1.50;;
27145;SDS011;17980;51.744;7.190;2023-05-20T05:00:50;4.13;;;1.50;;
27145;SDS011;17980;51.744;7.190;2023-05-20T05:03:18;4.87;;;1.90;;
27145;SDS011;17980;51.744;7.190;2023-05-20T05:05:45;3.60;;;1.30;;
27145;SDS011;17980;51.744;7.190;2023-05-20T05:10:49;3.17;;;0.93;;
27145;SDS011;17980;51.744;7.190;2023-05-20T05:13:16;3.57;;;1.37;;
27145;SDS011;17980;51.744;7.190;2023-05-20T05:15:43;2.23;;;1.13;;
27145;SDS011;17980;51.744;7.190;2023-05-20T05:18:20;4.97;;;1.53;;
27145;SDS011;17980;51.744;7.190;2023-05-20T05:20:48;1.80;;;1.20;;
27145;SDS011;17980;51.744;7.190;2023-05-20T05:23:25;2.70;;;1.40;;
27145;SDS011;17980;51.744;7.190;2023-05-20T05:25:52;2.57;;;1.23;;
27145;SDS011;17980;51.744;7.190;2023-05-20T05:28:20;2.70;;;1.20;;
27145;SDS011;17980;51.744;7.190;2023-05-20T05:30:57;1.60;;;1.10;;
27145;SDS011;17980;51.744;7.190;2023-05-20T05:33:26;2.80;;;1.00;;
27145;SDS011;17980;51.744;7.190;2023-05-20T05:35:54;5.27;;;1.63;;
27145;SDS011;17980;51.744;7.190;2023-05-20T05:38:23;2.13;;;1.60;;
27145;SDS011;17980;51.744;7.190;2023-05-20T05:41:00;1.87;;;1.33;;
27145;SDS011;17980;51.744;7.190;2023-05-20T05:43:27;4.20;;;1.33;;
27145;SDS011;17980;51.744;7.190;2023-05-20T05:45:55;4.77;;;1.17;;
27145;SDS011;17980;51.744;7.190;2023-05-20T05:48:32;4.33;;;1.60;;
27145;SDS011;17980;51.744;7.190;2023-05-20T05:50:59;2.20;;;1.40;;
27145;SDS011;17980;51.744;7.190;2023-05-20T05:53:36;3.33;;;1.20;;
27145;SDS011;17980;51.744;7.190;2023-05-20T05:56:04;2.37;;;1.50;;
27145;SDS011;17980;51.744;7.190;2023-05-20T05:58:32;3.13;;;1.13;;
27145;SDS011;17980;51.744;7.190;2023-05-20T06:01:09;1.50;;;1.13;;
27145;SDS011;17980;51.744;7.190;2023-05-20T06:03:36;1.97;;;1.30;;
27145;SDS011;17980;51.744;7.190;2023-05-20T06:06:04;1.83;;;1.47;;
27145;SDS011;17980;51.744;7.190;2023-05-20T06:08:40;1.23;;;1.13;;
27145;SDS011;17980;51.744;7.190;2023-05-20T06:11:08;3.00;;;1.20;;
27145;SDS011;17980;51.744;7.190;2023-05-20T06:13:45;6.53;;;1.60;;
27145;SDS011;17980;51.744;7.190;2023-05-20T06:16:12;3.10;;;1.20;;
27145;SDS011;17980;51.744;7.190;2023-05-20T06:21:15;1.37;;;1.27;;
27145;SDS011;17980;51.744;7.190;2023-05-20T06:23:42;5.33;;;1.40;;
27145;SDS011;17980;51.744;7.190;2023-05-20T06:26:10;3.03;;;1.57;;
27145;SDS011;17980;51.744;7.190;2023-05-20T06:31:14;2.43;;;1.60;;
27145;SDS011;17980;51.744;7.190;2023-05-20T06:33:41;2.90;;;1.20;;
27145;SDS011;17980;51.744;7.190;2023-05-20T06:36:08;5.47;;;1.40;;
27145;SDS011;17980;51.744;7.190;2023-05-20T06:38:36;2.00;;;1.33;;
27145;SDS011;17980;51.744;7.190;2023-05-20T06:41:13;2.13;;;1.30;;
27145;SDS011;17980;51.744;7.190;2023-05-20T06:43:40;3.77;;;1.50;;
27145;SDS011;17980;51.744;7.190;2023-05-20T06:46:18;1.60;;;1.50;;
27145;SDS011;17980;51.744;7.190;2023-05-20T06:48:45;1.40;;;1.20;;
27145;SDS011;17980;51.744;7.190;2023-05-20T06:51:22;3.40;;;1.37;;
27145;SDS011;17980;51.744;7.190;2023-05-20T06:53:49;2.23;;;1.57;;
27145;SDS011;17980;51.744;7.190;2023-05-20T06:56:17;4.37;;;1.67;;
27145;SDS011;17980;51.744;7.190;2023-05-20T06:58:44;2.33;;;1.50;;
27145;SDS011;17980;51.744;7.190;2023-05-20T07:01:21;4.13;;;1.53;;
27145;SDS011;17980;51.744;7.190;2023-05-20T07:03:48;2.57;;;1.10;;
27145;SDS011;17980;51.744;7.190;2023-05-20T07:06:16;2.50;;;1.23;;
27145;SDS011;17980;51.744;7.190;2023-05-20T07:08:52;17.63;;;1.77;;
27145;SDS011;17980;51.744;7.190;2023-05-20T07:13:56;2.53;;;1.60;;
27145;SDS011;17980;51.744;7.190;2023-05-20T07:16:23;6.17;;;1.60;;
27145;SDS011;17980;51.744;7.190;2023-05-20T07:19:00;2.00;;;1.23;;
27145;SDS011;17980;51.744;7.190;2023-05-20T07:21:27;2.00;;;1.33;;
27145;SDS011;17980;51.744;7.190;2023-05-20T07:23:55;4.03;;;1.27;;
27145;SDS011;17980;51.744;7.190;2023-05-20T07:26:22;3.40;;;1.00;;
27145;SDS011;17980;51.744;7.190;2023-05-20T07:28:59;1.20;;;1.10;;
27145;SDS011;17980;51.744;7.190;2023-05-20T07:31:26;1.60;;;1.40;;
27145;SDS011;17980;51.744;7.190;2023-05-20T07:33:54;3.47;;;1.70;;
27145;SDS011;17980;51.744;7.190;2023-05-20T07:36:34;2.23;;;2.00;;
27145;SDS011;17980;51.744;7.190;2023-05-20T07:39:03;2.03;;;1.63;;
27145;SDS011;17980;51.744;7.190;2023-05-20T07:41:40;1.90;;;1.53;;
27145;SDS011;17980;51.744;7.190;2023-05-20T07:44:07;2.40;;;2.10;;
27145;SDS011;17980;51.744;7.190;2023-05-20T07:46:36;3.93;;;2.20;;
27145;SDS011;17980;51.744;7.190;2023-05-20T07:49:12;6.73;;;2.50;;
27145;SDS011;17980;51.744;7.190;2023-05-20T07:51:50;6.60;;;2.50;;
27145;SDS011;17980;51.744;7.190;2023-05-20T07:54:18;5.00;;;2.23;;
27145;SDS011;17980;51.744;7.190;2023-05-20T07:56:45;3.80;;;1.90;;
27145;SDS011;17980;51.744;7.190;2023-05-20T07:59:22;4.33;;;2.87;;
27145;SDS011;17980;51.744;7.190;2023-05-20T08:01:50;3.40;;;2.30;;
27145;SDS011;17980;51.744;7.190;2023-05-20T08:04:17;2.37;;;2.13;;
27145;SDS011;17980;51.744;7.190;2023-05-20T08:06:44;2.40;;;2.20;;
27145;SDS011;17980;51.744;7.190;2023-05-20T08:09:21;3.20;;;2.90;;
27145;SDS011;17980;51.744;7.190;2023-05-20T08:11:48;3.13;;;2.47;;
27145;SDS011;17980;51.744;7.190;2023-05-20T08:14:16;2.20;;;2.00;;
27145;SDS011;17980;51.744;7.190;2023-05-20T08:16:43;3.30;;;2.60;;
27145;SDS011;17980;51.744;7.190;2023-05-20T08:19:20;5.30;;;2.87;;
27145;SDS011;17980;51.744;7.190;2023-05-20T08:21:47;4.00;;;2.80;;
27145;SDS011;17980;51.744;7.190;2023-05-20T08:24:24;4.23;;;2.80;;
27145;SDS011;17980;51.744;7.190;2023-05-20T08:26:51;3.40;;;2.73;;
27145;SDS011;17980;51.744;7.190;2023-05-20T08:29:34;6.43;;;2.87;;
27145;SDS011;17980;51.744;7.190;2023-05-20T08:32:01;7.77;;;3.07;;
27145;SDS011;17980;51.744;7.190;2023-05-20T08:34:29;2.50;;;2.30;;
27145;SDS011;17980;51.744;7.190;2023-05-20T08:37:06;4.47;;;2.50;;
27145;SDS011;17980;51.744;7.190;2023-05-20T08:39:33;4.97;;;2.50;;
27145;SDS011;17980;51.744;7.190;2023-05-20T08:42:10;2.87;;;2.50;;
27145;SDS011;17980;51.744;7.190;2023-05-20T08:47:14;3.87;;;2.10;;
27145;SDS011;17980;51.744;7.190;2023-05-20T08:49:41;5.73;;;2.13;;
27145;SDS011;17980;51.744;7.190;2023-05-20T08:52:24;2.17;;;1.97;;
27145;SDS011;17980;51.744;7.190;2023-05-20T08:54:52;2.53;;;2.30;;
27145;SDS011;17980;51.744;7.190;2023-05-20T08:57:21;4.67;;;2.40;;
27145;SDS011;17980;51.744;7.190;2023-05-20T08:59:58;3.40;;;2.40;;
27145;SDS011;17980;51.744;7.190;2023-05-20T09:02:25;4.73;;;2.57;;
27145;SDS011;17980;51.744;7.190;2023-05-20T09:04:52;4.70;;;1.77;;
27145;SDS011;17980;51.744;7.190;2023-05-20T09:07:26;6.63;;;2.27;;
27145;SDS011;17980;51.744;7.190;2023-05-20T09:10:03;2.70;;;2.07;;
27145;SDS011;17980;51.744;7.190;2023-05-20T09:15:08;2.40;;;1.83;;
27145;SDS011;17980;51.744;7.190;2023-05-20T09:17:36;3.40;;;2.27;;
27145;SDS011;17980;51.744;7.190;2023-05-20T09:20:14;3.37;;;2.07;;
27145;SDS011;17980;51.744;7.190;2023-05-20T09:22:42;2.27;;;1.90;;
27145;SDS011;17980;51.744;7.190;2023-05-20T09:27:45;4.80;;;1.93;;
27145;SDS011;17980;51.744;7.190;2023-05-20T09:30:13;3.23;;;1.70;;
27145;SDS011;17980;51.744;7.190;2023-05-20T09:32:53;2.63;;;2.20;;
27145;SDS011;17980;51.744;7.190;2023-05-20T09:35:22;3.87;;;2.07;;
27145;SDS011;17980;51.744;7.190;2023-05-20T09:37:51;2.00;;;1.90;;
27145;SDS011;17980;51.744;7.190;2023-05-20T09:40:22;2.60;;;1.80;;
27145;SDS011;17980;51.744;7.190;2023-05-20T09:43:01;2.20;;;1.63;;
27145;SDS011;17980;51.744;7.190;2023-05-20T09:45:29;2.57;;;1.97;;
27145;SDS011;17980;51.744;7.190;2023-05-20T09:47:56;2.33;;;1.97;;
27145;SDS011;17980;51.744;7.190;2023-05-20T09:50:33;4.40;;;1.67;;
27145;SDS011;17980;51.744;7.190;2023-05-20T09:53:02;2.03;;;1.80;;
27145;SDS011;17980;51.744;7.190;2023-05-20T09:55:30;2.63;;;1.60;;
27145;SDS011;17980;51.744;7.190;2023-05-20T09:57:58;2.70;;;2.00;;
27145;SDS011;17980;51.744;7.190;2023-05-20T10:00:37;1.63;;;1.53;;
27145;SDS011;17980;51.744;7.190;2023-05-20T10:03:04;2.13;;;1.53;;
27145;SDS011;17980;51.744;7.190;2023-05-20T10:05:44;3.10;;;1.80;;
27145;SDS011;17980;51.744;7.190;2023-05-20T10:08:26;3.50;;;1.93;;
27145;SDS011;17980;51.744;7.190;2023-05-20T10:11:02;2.30;;;1.70;;
27145;SDS011;17980;51.744;7.190;2023-05-20T10:13:48;12.57;;;6.53;;
27145;SDS011;17980;51.744;7.190;2023-05-20T10:16:21;4.47;;;2.77;;
27145;SDS011;17980;51.744;7.190;2023-05-20T10:18:54;9.67;;;3.83;;
27145;SDS011;17980;51.744;7.190;2023-05-20T10:21:24;3.47;;;2.77;;
27145;SDS011;17980;51.744;7.190;2023-05-20T10:24:07;3.30;;;2.07;;
27145;SDS011;17980;51.744;7.190;2023-05-20T10:29:14;5.13;;;2.27;;
27145;SDS011;17980;51.744;7.190;2023-05-20T10:31:48;8.17;;;2.07;;
27145;SDS011;17980;51.744;7.190;2023-05-20T10:34:24;6.70;;;2.03;;
27145;SDS011;17980;51.744;7.190;2023-05-20T10:36:58;1.90;;;1.80;;
27145;SDS011;17980;51.744;7.190;2023-05-20T10:39:26;3.33;;;2.20;;
27145;SDS011;17980;51.744;7.190;2023-05-20T10:42:07;4.03;;;2.30;;
27145;SDS011;17980;51.744;7.190;2023-05-20T10:44:42;2.67;;;1.70;;
27145;SDS011;17980;51.744;7.190;2023-05-20T10:47:18;2.50;;;1.70;;
27145;SDS011;17980;51.744;7.190;2023-05-20T10:49:46;4.30;;;1.90;;
27145;SDS011;17980;51.744;7.190;2023-05-20T10:52:23;2.17;;;1.53;;
27145;SDS011;17980;51.744;7.190;2023-05-20T10:57:30;2.30;;;1.57;;
27145;SDS011;17980;51.744;7.190;2023-05-20T10:59:57;2.20;;;1.60;;
27145;SDS011;17980;51.744;7.190;2023-05-20T11:02:34;2.13;;;1.67;;
27145;SDS011;17980;51.744;7.190;2023-05-20T11:05:03;4.27;;;1.87;;
27145;SDS011;17980;51.744;7.190;2023-05-20T11:07:31;2.83;;;1.60;;
27145;SDS011;17980;51.744;7.190;2023-05-20T11:10:09;2.20;;;1.90;;
27145;SDS011;17980;51.744;7.190;2023-05-20T11:12:36;1.77;;;1.20;;
27145;SDS011;17980;51.744;7.190;2023-05-20T11:15:05;1.70;;;1.33;;
27145;SDS011;17980;51.744;7.190;2023-05-20T11:17:35;2.20;;;1.30;;
27145;SDS011;17980;51.744;7.190;2023-05-20T11:20:13;2.50;;;1.73;;
27145;SDS011;17980;51.744;7.190;2023-05-20T11:22:41;1.30;;;1.20;;
27145;SDS011;17980;51.744;7.190;2023-05-20T11:25:11;3.20;;;1.10;;
27145;SDS011;17980;51.744;7.190;2023-05-20T11:30:14;2.00;;;1.30;;
27145;SDS011;17980;51.744;7.190;2023-05-20T11:32:43;1.67;;;1.20;;
27145;SDS011;17980;51.744;7.190;2023-05-20T11:35:22;1.73;;;1.00;;
27145;SDS011;17980;51.744;7.190;2023-05-20T11:37:54;2.27;;;1.20;;
27145;SDS011;17980;51.744;7.190;2023-05-20T11:40:32;1.67;;;1.17;;
27145;SDS011;17980;51.744;7.190;2023-05-20T11:43:00;3.47;;;1.20;;
27145;SDS011;17980;51.744;7.190;2023-05-20T11:45:38;2.13;;;1.30;;
27145;SDS011;17980;51.744;7.190;2023-05-20T11:48:15;1.17;;;1.03;;
27145;SDS011;17980;51.744;7.190;2023-05-20T11:50:44;1.43;;;0.90;;
27145;SDS011;17980;51.744;7.190;2023-05-20T11:53:22;3.17;;;0.93;;
27145;SDS011;17980;51.744;7.190;2023-05-20T11:55:51;3.90;;;1.20;;
27145;SDS011;17980;51.744;7.190;2023-05-20T11:58:28;1.83;;;0.90;;
27145;SDS011;17980;51.744;7.190;2023-05-20T12:00:56;1.63;;;0.97;;
27145;SDS011;17980;51.744;7.190;2023-05-20T12:06:11;3.33;;;0.97;;
27145;SDS011;17980;51.744;7.190;2023-05-20T12:08:38;2.47;;;0.87;;
27145;SDS011;17980;51.744;7.190;2023-05-20T12:11:15;1.80;;;0.90;;
27145;SDS011;17980;51.744;7.190;2023-05-20T12:13:42;4.80;;;0.70;;
27145;SDS011;17980;51.744;7.190;2023-05-20T12:16:10;0.97;;;0.70;;
27145;SDS011;17980;51.744;7.190;2023-05-20T12:18:47;0.80;;;0.80;;
27145;SDS011;17980;51.744;7.190;2023-05-20T12:21:14;1.60;;;1.00;;
27145;SDS011;17980;51.744;7.190;2023-05-20T12:23:51;1.00;;;1.00;;
27145;SDS011;17980;51.744;7.190;2023-05-20T12:26:20;1.20;;;0.80;;
27145;SDS011;17980;51.744;7.190;2023-05-20T12:28:57;0.80;;;0.80;;
27145;SDS011;17980;51.744;7.190;2023-05-20T12:31:24;2.50;;;0.90;;
27145;SDS011;17980;51.744;7.190;2023-05-20T12:34:01;1.43;;;1.10;;
27145;SDS011;17980;51.744;7.190;2023-05-20T12:36:29;0.80;;;0.80;;
27145;SDS011;17980;51.744;7.190;2023-05-20T12:38:57;2.33;;;0.80;;
27145;SDS011;17980;51.744;7.190;2023-05-20T12:41:24;1.77;;;1.10;;
27145;SDS011;17980;51.744;7.190;2023-05-20T12:44:01;5.97;;;1.00;;
27145;SDS011;17980;51.744;7.190;2023-05-20T12:46:28;0.90;;;0.70;;
27145;SDS011;17980;51.744;7.190;2023-05-20T12:49:08;0.70;;;0.70;;
27145;SDS011;17980;51.744;7.190;2023-05-20T12:51:35;1.20;;;0.77;;
27145;SDS011;17980;51.744;7.190;2023-05-20T12:54:12;2.10;;;0.70;;
27145;SDS011;17980;51.744;7.190;2023-05-20T12:56:39;1.97;;;0.90;;
27145;SDS011;17980;51.744;7.190;2023-05-20T12:59:16;1.20;;;0.67;;
27145;SDS011;17980;51.744;7.190;2023-05-20T13:01:46;0.70;;;0.57;;
27145;SDS011;17980;51.744;7.190;2023-05-20T13:04:23;1.63;;;0.63;;
27145;SDS011;17980;51.744;7.190;2023-05-20T13:06:50;4.00;;;0.83;;
27145;SDS011;17980;51.744;7.190;2023-05-20T13:09:17;0.90;;;0.80;;
27145;SDS011;17980;51.744;7.190;2023-05-20T13:11:45;2.53;;;0.77;;
27145;SDS011;17980;51.744;7.190;2023-05-20T13:14:22;1.53;;;0.80;;
27145;SDS011;17980;51.744;7.190;2023-05-20T13:16:49;0.90;;;0.80;;
27145;SDS011;17980;51.744;7.190;2023-05-20T13:19:19;2.43;;;0.70;;
27145;SDS011;17980;51.744;7.190;2023-05-20T13:21:47;4.20;;;0.90;;
27145;SDS011;17980;51.744;7.190;2023-05-20T13:24:24;1.77;;;0.90;;
27145;SDS011;17980;51.744;7.190;2023-05-20T13:26:51;3.37;;;0.90;;
27145;SDS011;17980;51.744;7.190;2023-05-20T13:29:19;2.80;;;0.73;;
27145;SDS011;17980;51.744;7.190;2023-05-20T13:32:02;2.43;;;0.80;;
27145;SDS011;17980;51.744;7.190;2023-05-20T13:34:30;2.07;;;1.00;;
27145;SDS011;17980;51.744;7.190;2023-05-20T13:37:07;5.80;;;0.90;;
27145;SDS011;17980;51.744;7.190;2023-05-20T13:39:34;7.03;;;1.00;;
27145;SDS011;17980;51.744;7.190;2023-05-20T13:42:02;4.13;;;0.90;;
27145;SDS011;17980;51.744;7.190;2023-05-20T13:44:39;1.83;;;0.90;;
27145;SDS011;17980;51.744;7.190;2023-05-20T13:47:06;0.77;;;0.77;;
27145;SDS011;17980;51.744;7.190;2023-05-20T13:49:33;2.07;;;0.90;;
27145;SDS011;17980;51.744;7.190;2023-05-20T13:52:10;1.47;;;0.70;;
27145;SDS011;17980;51.744;7.190;2023-05-20T13:54:38;1.73;;;0.67;;
27145;SDS011;17980;51.744;7.190;2023-05-20T13:57:07;2.80;;;0.90;;
27145;SDS011;17980;51.744;7.190;2023-05-20T13:59:34;2.40;;;1.10;;
27145;SDS011;17980;51.744;7.190;2023-05-20T14:02:02;1.63;;;0.90;;
27145;SDS011;17980;51.744;7.190;2023-05-20T14:04:39;2.33;;;1.03;;
27145;SDS011;17980;51.744;7.190;2023-05-20T14:07:09;1.53;;;0.87;;
27145;SDS011;17980;51.744;7.190;2023-05-20T14:09:36;3.27;;;1.07;;
27145;SDS011;17980;51.744;7.190;2023-05-20T14:12:04;0.90;;;0.83;;
27145;SDS011;17980;51.744;7.190;2023-05-20T14:14:47;2.90;;;0.90;;
27145;SDS011;17980;51.744;7.190;2023-05-20T14:17:15;2.03;;;0.80;;
27145;SDS011;17980;51.744;7.190;2023-05-20T14:19:52;1.67;;;0.70;;
27145;SDS011;17980;51.744;7.190;2023-05-20T14:22:19;2.77;;;0.90;;
27145;SDS011;17980;51.744;7.190;2023-05-20T14:24:56;1.80;;;0.90;;
27145;SDS011;17980;51.744;7.190;2023-05-20T14:27:26;1.10;;;0.90;;
27145;SDS011;17980;51.744;7.190;2023-05-20T14:30:05;2.60;;;1.50;;
27145;SDS011;17980;51.744;7.190;2023-05-20T14:32:34;3.90;;;1.20;;
27145;SDS011;17980;51.744;7.190;2023-05-20T14:35:11;1.30;;;1.20;;
27145;SDS011;17980;51.744;7.190;2023-05-20T14:37:38;4.03;;;1.17;;
27145;SDS011;17980;51.744;7.190;2023-05-20T14:40:07;1.80;;;0.90;;
27145;SDS011;17980;51.744;7.190;2023-05-20T14:42:44;3.07;;;1.27;;
27145;SDS011;17980;51.744;7.190;2023-05-20T14:45:12;2.13;;;1.00;;
27145;SDS011;17980;51.744;7.190;2023-05-20T14:50:08;1.67;;;1.10;;
27145;SDS011;17980;51.744;7.190;2023-05-20T14:52:36;2.40;;;1.00;;
27145;SDS011;17980;51.744;7.190;2023-05-20T14:55:03;2.03;;;1.00;;
27145;SDS011;17980;51.744;7.190;2023-05-20T14:57:32;2.00;;;1.20;;
27145;SDS011;17980;51.744;7.190;2023-05-20T15:00:11;1.53;;;1.10;;
27145;SDS011;17980;51.744;7.190;2023-05-20T15:02:39;1.20;;;1.00;;
27145;SDS011;17980;51.744;7.190;2023-05-20T15:05:16;0.90;;;0.90;;
27145;SDS011;17980;51.744;7.190;2023-05-20T15:07:43;1.20;;;0.87;;
27145;SDS011;17980;51.744;7.190;2023-05-20T15:10:20;1.27;;;1.00;;
27145;SDS011;17980;51.744;7.190;2023-05-20T15:12:47;3.63;;;0.90;;
27145;SDS011;17980;51.744;7.190;2023-05-20T15:15:24;1.50;;;0.90;;
27145;SDS011;17980;51.744;7.190;2023-05-20T15:17:52;2.70;;;1.20;;
27145;SDS011;17980;51.744;7.190;2023-05-20T15:20:28;1.53;;;1.10;;
27145;SDS011;17980;51.744;7.190;2023-05-20T15:22:56;0.93;;;0.93;;
27145;SDS011;17980;51.744;7.190;2023-05-20T15:25:23;1.10;;;0.90;;
27145;SDS011;17980;51.744;7.190;2023-05-20T15:28:00;1.60;;;0.90;;
27145;SDS011;17980;51.744;7.190;2023-05-20T15:30:27;0.80;;;0.80;;
27145;SDS011;17980;51.744;7.190;2023-05-20T15:33:05;1.43;;;1.00;;
27145;SDS011;17980;51.744;7.190;2023-05-20T15:35:32;3.10;;;1.00;;
27145;SDS011;17980;51.744;7.190;2023-05-20T15:37:59;3.53;;;1.20;;
27145;SDS011;17980;51.744;7.190;2023-05-20T15:40:36;1.80;;;1.00;;
27145;SDS011;17980;51.744;7.190;2023-05-20T15:43:04;0.80;;;0.80;;
27145;SDS011;17980;51.744;7.190;2023-05-20T15:45:32;3.47;;;0.83;;